Time;durP1;ratioP1;P1;durP2;ratioP2;P2;SDS_P1;SDS_P2;PMS_P1;PMS_P2;Temp;Humidity;BMP_temperature;BMP_pressure;BME280_temperature;BME280_humidity;BME280_pressure;Samples;Min_cycle;Max_cycle;Signal;HPM_P1;HPM_P2
2022/01/15 00:00:18;;;;;;;0.88;0.88;;;;;;;-4.01;85.55;95921.06;4881510;29;20071;-80
2022/01/15 00:02:45;;;;;;;1.00;1.00;;;;;;;-3.93;84.70;95914.66;4887802;29;20536;-80
2022/01/15 00:05:14;;;;;;;0.90;0.90;;;;;;;-3.89;83.66;95930.84;4885172;29;20056;-80
2022/01/15 00:07:47;;;;;;;0.77;0.77;;;;;;;-3.88;83.24;95921.91;4888322;29;20052;-81
2022/01/15 00:10:20;;;;;;;0.90;0.90;;;;;;;-3.79;81.33;95926.59;4891370;29;20512;-81
2022/01/15 00:12:47;;;;;;;0.70;0.70;;;;;;;-3.75;80.36;95934.84;4886027;29;20054;-82
2022/01/15 00:15:28;;;;;;;0.75;0.75;;;;;;;-3.72;79.34;95929.94;4884712;29;20472;-83
2022/01/15 00:18:10;;;;;;;0.82;0.82;;;;;;;-3.72;78.80;95929.94;4885369;29;20056;-83
2022/01/15 00:20:37;;;;;;;0.80;0.80;;;;;;;-3.74;78.41;95934.63;4885754;29;20099;-81
2022/01/15 00:23:05;;;;;;;0.80;0.80;;;;;;;-3.71;77.99;95934.16;4887449;29;20067;-82
2022/01/15 00:25:33;;;;;;;1.00;1.00;;;;;;;-3.69;76.54;95918.13;4883495;29;21445;-81
2022/01/15 00:28:01;;;;;;;0.80;0.80;;;;;;;-3.68;75.65;95932.09;4849788;29;20489;-82
2022/01/15 00:30:29;;;;;;;0.95;0.95;;;;;;;-3.72;75.99;95929.13;4883212;29;20049;-81
2022/01/15 00:32:57;;;;;;;0.80;0.80;;;;;;;-3.79;75.51;95944.25;4880588;29;20427;-81
2022/01/15 00:35:26;;;;;;;0.70;0.70;;;;;;;-3.72;76.07;95948.38;4886920;29;20045;-81
2022/01/15 00:37:53;;;;;;;0.70;0.70;;;;;;;-3.72;75.96;95947.59;4886065;29;20100;-81
2022/01/15 00:40:21;;;;;;;0.90;0.90;;;;;;;-3.86;76.04;95933.81;4886229;29;20063;-81
2022/01/15 00:42:48;;;;;;;0.90;0.90;;;;;;;-4.03;76.17;95935.50;4880763;29;20053;-81
2022/01/15 00:45:20;;;;;;;0.80;0.80;;;;;;;-4.19;76.64;95944.88;4885415;29;20053;-81
2022/01/15 00:47:49;;;;;;;0.95;0.95;;;;;;;-4.22;76.50;95955.88;4885955;29;20083;-82
2022/01/15 00:50:16;;;;;;;1.00;1.00;;;;;;;-4.20;76.45;95953.81;4865415;29;20052;-81
2022/01/15 00:52:44;;;;;;;0.80;0.80;;;;;;;-4.10;76.02;95954.06;4884591;29;20053;-83
2022/01/15 00:55:13;;;;;;;0.90;0.90;;;;;;;-3.96;75.87;95960.72;4883945;29;20401;-81
2022/01/15 00:57:41;;;;;;;0.70;0.70;;;;;;;-3.90;75.49;95969.53;4885712;29;20060;-81
2022/01/15 01:00:10;;;;;;;0.80;0.80;;;;;;;-3.84;75.03;95979.19;4887794;29;20055;-83
2022/01/15 01:02:37;;;;;;;0.80;0.80;;;;;;;-3.81;75.40;95984.00;4886599;29;20489;-82
2022/01/15 01:05:05;;;;;;;0.70;0.70;;;;;;;-3.94;76.02;95971.84;4892690;29;20053;-83
2022/01/15 01:07:32;;;;;;;0.90;0.90;;;;;;;-4.02;76.54;95980.06;4884853;29;20100;-84
2022/01/15 01:10:16;;;;;;;0.73;0.73;;;;;;;-4.02;76.93;95984.53;4881889;29;20072;-82
2022/01/15 01:23:13;;;;;;;0.80;0.80;;;;;;;-3.86;78.82;95990.97;4880328;29;20101;-83
2022/01/15 01:25:47;;;;;;;0.80;0.80;;;;;;;-3.90;79.22;95997.72;4881632;29;20456;-83
2022/01/15 01:28:34;;;;;;;0.82;0.82;;;;;;;-3.97;80.04;95998.63;4883806;29;20080;-84
2022/01/15 01:31:13;;;;;;;0.80;0.80;;;;;;;-3.94;80.71;95990.28;4882042;29;20148;-83
2022/01/15 01:33:45;;;;;;;0.65;0.65;;;;;;;-3.97;81.08;96001.28;4887407;29;20073;-82
2022/01/15 01:36:26;;;;;;;0.95;0.95;;;;;;;-4.02;81.55;95977.44;4889837;29;20080;-83
2022/01/15 01:38:58;;;;;;;0.95;0.95;;;;;;;-4.02;82.00;95995.09;4884368;29;20060;-82
2022/01/15 01:41:34;;;;;;;0.93;0.93;;;;;;;-4.01;82.11;95994.84;4879697;29;20515;-82
2022/01/15 01:44:04;;;;;;;0.80;0.80;;;;;;;-4.05;82.55;95985.81;4866399;29;20072;-82
2022/01/15 01:46:44;;;;;;;0.75;0.75;;;;;;;-4.03;82.76;95991.63;4889990;29;20431;-82
2022/01/15 01:49:13;;;;;;;1.00;1.00;;;;;;;-4.06;82.88;96002.63;4888618;29;20105;-83
2022/01/15 01:51:42;;;;;;;0.90;0.90;;;;;;;-4.01;82.91;96001.94;4891733;29;20076;-82
2022/01/15 01:54:13;;;;;;;0.88;0.88;;;;;;;-3.96;82.94;96002.06;4887341;29;20124;-80
2022/01/15 01:56:40;;;;;;;0.90;0.90;;;;;;;-3.92;82.72;96014.56;4887050;29;20076;-80
2022/01/15 01:59:08;;;;;;;0.90;0.90;;;;;;;-3.86;82.38;96017.34;4891534;29;20108;-82
2022/01/15 02:01:35;;;;;;;0.82;0.82;;;;;;;-3.81;82.13;96017.47;4888211;29;20063;-82
2022/01/15 02:04:03;;;;;;;0.80;0.80;;;;;;;-3.77;82.29;96015.97;4888745;29;20053;-82
2022/01/15 02:06:30;;;;;;;0.90;0.90;;;;;;;-3.77;82.22;96035.22;4890102;29;20059;-83
2022/01/15 02:08:58;;;;;;;0.77;0.77;;;;;;;-3.75;82.56;96029.72;4886645;29;20060;-81
2022/01/15 02:11:26;;;;;;;0.90;0.90;;;;;;;-3.77;82.53;96019.41;4881935;29;20049;-82
2022/01/15 02:13:53;;;;;;;0.77;0.77;;;;;;;-3.78;82.82;96014.38;4886357;29;20061;-82
2022/01/15 02:16:22;;;;;;;0.85;0.85;;;;;;;-3.75;82.88;96029.72;4887779;29;20055;-83
2022/01/15 02:18:53;;;;;;;0.95;0.95;;;;;;;-3.75;83.16;96021.81;4887827;29;20124;-82
2022/01/15 02:23:54;;;;;;;0.70;0.70;;;;;;;-3.80;83.41;96034.84;4888479;29;20416;-82
2022/01/15 02:26:26;;;;;;;0.70;0.70;;;;;;;-3.81;83.48;96012.19;4887136;29;20369;-82
2022/01/15 02:28:58;;;;;;;0.77;0.77;;;;;;;-3.80;83.43;96042.75;4889692;29;20491;-82
2022/01/15 02:31:28;;;;;;;0.80;0.80;;;;;;;-3.78;83.47;96033.59;4891019;29;20505;-82
2022/01/15 02:33:57;;;;;;;0.82;0.82;;;;;;;-3.80;83.87;96030.41;4883851;29;20164;-82
2022/01/15 02:36:26;;;;;;;0.90;0.90;;;;;;;-3.77;83.91;96037.06;4884515;29;20104;-80
2022/01/15 02:38:54;;;;;;;0.90;0.90;;;;;;;-3.75;83.95;96032.34;4886895;29;20060;-82
2022/01/15 02:41:35;;;;;;;0.73;0.73;;;;;;;-3.74;84.01;96031.34;4887313;29;20064;-81
2022/01/15 02:44:05;;;;;;;0.80;0.80;;;;;;;-3.72;84.06;96043.25;4888088;29;20389;-81
2022/01/15 02:49:05;;;;;;;0.80;0.80;;;;;;;-3.73;84.01;96040.84;4887255;29;20052;-82
2022/01/15 02:51:35;;;;;;;0.65;0.65;;;;;;;-3.76;84.23;96036.81;4887678;29;20087;-82
2022/01/15 02:54:03;;;;;;;0.80;0.80;;;;;;;-3.76;84.44;96039.47;4886888;29;20463;-81
2022/01/15 02:56:35;;;;;;;0.50;0.50;;;;;;;-3.73;84.39;96046.13;4881799;29;20532;-81
2022/01/15 02:59:09;;;;;;;0.60;0.60;;;;;;;-3.73;84.26;96043.47;4886651;29;20500;-82
2022/01/15 03:01:36;;;;;;;0.70;0.70;;;;;;;-3.72;84.04;96045.09;4893820;29;20061;-81
2022/01/15 03:04:03;;;;;;;0.90;0.90;;;;;;;-3.69;84.20;96059.66;4894210;29;20673;-82
2022/01/15 03:06:30;;;;;;;0.80;0.80;;;;;;;-3.74;84.49;96053.22;4888278;29;20057;-81
2022/01/15 03:08:57;;;;;;;0.80;0.80;;;;;;;-3.73;84.49;96064.56;4887157;29;20057;-81
2022/01/15 03:11:27;;;;;;;0.60;0.60;;;;;;;-3.74;84.56;96068.25;4887558;29;20104;-81
2022/01/15 03:13:54;;;;;;;0.80;0.80;;;;;;;-3.69;84.32;96067.56;4889099;29;20053;-81
2022/01/15 03:16:22;;;;;;;0.80;0.80;;;;;;;-3.70;84.12;96069.38;4887626;29;20621;-81
2022/01/15 03:18:50;;;;;;;0.80;0.80;;;;;;;-3.71;84.02;96071.22;4888339;29;20052;-80
2022/01/15 03:21:18;;;;;;;0.90;0.90;;;;;;;-3.69;83.91;96070.19;4886377;29;20061;-82
2022/01/15 03:23:46;;;;;;;0.85;0.85;;;;;;;-3.73;84.26;96068.00;4888451;29;20545;-82
2022/01/15 03:26:14;;;;;;;0.75;0.75;;;;;;;-3.67;84.13;96073.38;4888946;29;20106;-82
2022/01/15 03:28:43;;;;;;;0.47;0.47;;;;;;;-3.67;83.84;96074.22;4886314;29;20056;-83
2022/01/15 03:31:11;;;;;;;0.80;0.80;;;;;;;-3.64;84.00;96072.97;4886539;29;20384;-82
2022/01/15 03:33:38;;;;;;;0.70;0.70;;;;;;;-3.71;84.22;96078.31;4888655;29;20155;-82
2022/01/15 03:36:08;;;;;;;0.70;0.70;;;;;;;-3.72;84.64;96079.38;4887160;29;20053;-81
2022/01/15 03:38:35;;;;;;;0.80;0.80;;;;;;;-3.79;84.54;96082.09;4886527;29;20052;-82
2022/01/15 03:41:06;;;;;;;0.90;0.90;;;;;;;-3.78;84.82;96083.69;4871132;29;20057;-82
2022/01/15 03:43:33;;;;;;;0.77;0.77;;;;;;;-3.77;85.00;96092.41;4886252;29;20270;-82
2022/01/15 03:46:00;;;;;;;0.68;0.68;;;;;;;-3.77;85.10;96089.78;4887312;29;20536;-82
2022/01/15 03:48:27;;;;;;;0.90;0.90;;;;;;;-3.78;85.03;96090.78;4884829;29;20598;-82
2022/01/15 03:50:55;;;;;;;0.90;0.90;;;;;;;-3.81;85.08;96093.88;4888456;29;20503;-80
2022/01/15 03:53:23;;;;;;;0.70;0.70;;;;;;;-3.81;85.28;96092.03;4880450;29;20053;-81
2022/01/15 03:55:50;;;;;;;1.00;1.00;;;;;;;-3.79;85.27;96087.34;4888053;29;20100;-82
2022/01/15 03:58:19;;;;;;;1.00;1.00;;;;;;;-3.82;85.71;96095.72;4882706;29;20057;-82
2022/01/15 04:00:47;;;;;;;0.80;0.80;;;;;;;-3.81;85.86;96099.94;4881404;29;20539;-82
2022/01/15 04:03:14;;;;;;;0.70;0.70;;;;;;;-3.74;85.38;96108.56;4887585;29;20512;-84
2022/01/15 04:05:41;;;;;;;0.80;0.80;;;;;;;-3.74;85.18;96108.56;4885318;29;20520;-83
2022/01/15 04:08:11;;;;;;;1.00;1.00;;;;;;;-3.69;84.94;96109.75;4884548;29;20492;-83
2022/01/15 04:10:38;;;;;;;0.90;0.90;;;;;;;-3.75;84.94;96100.88;4880260;29;20086;-84
2022/01/15 04:13:05;;;;;;;0.70;0.70;;;;;;;-3.81;84.90;96099.94;4881167;29;20454;-82
2022/01/15 04:15:33;;;;;;;0.80;0.80;;;;;;;-3.80;85.22;96109.47;4887871;29;20092;-82
2022/01/15 04:18:01;;;;;;;0.70;0.70;;;;;;;-3.77;85.04;96109.03;4876752;29;20148;-82
2022/01/15 04:20:28;;;;;;;0.98;0.98;;;;;;;-3.76;84.96;96113.25;4878419;29;20084;-81
2022/01/15 04:22:55;;;;;;;1.00;1.00;;;;;;;-3.75;84.88;96116.69;4889149;29;20080;-82
2022/01/15 04:25:23;;;;;;;0.90;0.90;;;;;;;-3.77;84.96;96116.13;4884172;29;20049;-82
2022/01/15 04:27:50;;;;;;;0.77;0.77;;;;;;;-3.79;85.01;96124.25;4882954;29;20076;-83
2022/01/15 04:30:18;;;;;;;0.65;0.65;;;;;;;-3.74;85.00;96129.66;4890430;29;20056;-82
2022/01/15 04:32:46;;;;;;;0.70;0.70;;;;;;;-3.71;84.84;96133.66;4884585;29;20456;-83
2022/01/15 04:35:13;;;;;;;0.90;0.90;;;;;;;-3.69;84.68;96144.00;4881990;29;20168;-83
2022/01/15 04:37:45;;;;;;;0.70;0.70;;;;;;;-3.72;84.76;96138.16;4895638;29;20059;-83
2022/01/15 04:40:14;;;;;;;0.63;0.63;;;;;;;-3.69;84.48;96141.38;4897059;29;20068;-81
2022/01/15 04:42:42;;;;;;;1.00;1.00;;;;;;;-3.66;84.02;96149.63;4886588;29;20428;-82
2022/01/15 04:45:10;;;;;;;0.85;0.85;;;;;;;-3.68;83.64;96148.22;4883333;29;20136;-80
2022/01/15 04:47:41;;;;;;;0.80;0.80;;;;;;;-3.70;83.53;96148.44;4887028;29;20056;-80
2022/01/15 04:50:11;;;;;;;0.85;0.85;;;;;;;-3.69;83.42;96151.91;4883956;29;20082;-81
2022/01/15 04:52:38;;;;;;;0.90;0.90;;;;;;;-3.70;83.72;96148.44;4883652;29;20424;-82
2022/01/15 04:55:06;;;;;;;0.85;0.85;;;;;;;-3.70;83.55;96164.25;4885250;29;20053;-84
2022/01/15 04:57:34;;;;;;;0.73;0.73;;;;;;;-3.72;83.75;96166.34;4883419;29;20045;-82
2022/01/15 05:00:06;;;;;;;0.60;0.60;;;;;;;-3.73;83.55;96162.06;4882971;29;20457;-83
2022/01/15 05:02:33;;;;;;;1.00;1.00;;;;;;;-3.68;83.47;96172.75;4879742;29;20059;-83
2022/01/15 05:05:01;;;;;;;0.70;0.70;;;;;;;-3.68;83.48;96169.31;4881606;29;20057;-81
2022/01/15 05:07:29;;;;;;;0.98;0.98;;;;;;;-3.72;83.59;96180.31;4871633;29;20057;-84
2022/01/15 05:09:56;;;;;;;0.80;0.80;;;;;;;-3.73;84.38;96188.44;4888465;29;20080;-83
2022/01/15 05:14:53;;;;;;;0.70;0.70;;;;;;;-3.77;84.69;96195.19;4883017;29;20057;-80
2022/01/15 05:17:20;;;;;;;0.90;0.90;;;;;;;-3.78;84.91;96194.38;4883391;29;20049;-81
2022/01/15 05:19:48;;;;;;;0.70;0.70;;;;;;;-3.81;85.04;96194.03;4545615;29;10000246;-80
2022/01/15 05:22:15;;;;;;;0.77;0.77;;;;;;;-3.79;85.25;96200.69;4884788;29;20099;-81
2022/01/15 05:24:45;;;;;;;0.90;0.90;;;;;;;-3.73;85.69;96212.16;4882649;29;20049;-81
2022/01/15 05:27:12;;;;;;;0.77;0.77;;;;;;;-3.73;85.52;96206.88;4882105;29;20053;-81
2022/01/15 05:29:39;;;;;;;0.80;0.80;;;;;;;-3.68;85.62;96222.84;4883317;29;20151;-81
2022/01/15 05:32:07;;;;;;;0.90;0.90;;;;;;;-3.66;85.51;96227.91;4888475;29;20059;-79
2022/01/15 05:34:38;;;;;;;0.93;0.93;;;;;;;-3.69;85.63;96239.69;4886419;29;20080;-81
2022/01/15 05:37:06;;;;;;;0.70;0.70;;;;;;;-3.71;85.60;96247.81;4890302;29;20052;-80
2022/01/15 05:39:33;;;;;;;0.60;0.60;;;;;;;-3.67;85.61;96250.81;4884940;29;20102;-80
2022/01/15 05:42:00;;;;;;;0.90;0.90;;;;;;;-3.70;85.84;96243.34;4883485;29;20112;-79
2022/01/15 05:44:27;;;;;;;1.00;1.00;;;;;;;-3.70;85.47;96261.78;4885485;29;20045;-80
2022/01/15 05:46:54;;;;;;;0.82;0.82;;;;;;;-3.69;85.35;96266.06;4876975;29;20052;-82
2022/01/15 05:49:22;;;;;;;0.70;0.70;;;;;;;-3.62;85.07;96263.31;4887794;29;20097;-83
2022/01/15 05:51:49;;;;;;;1.00;1.00;;;;;;;-3.60;84.76;96271.81;4882781;29;20083;-80
2022/01/15 05:54:16;;;;;;;0.95;0.95;;;;;;;-3.56;84.22;96273.00;4880506;29;20060;-82
2022/01/15 05:56:45;;;;;;;1.00;1.00;;;;;;;-3.57;83.62;96272.19;4888389;29;20135;-82
2022/01/15 05:59:12;;;;;;;0.95;0.95;;;;;;;-3.55;83.31;96274.59;4884165;29;20061;-84
2022/01/15 06:01:39;;;;;;;0.93;0.93;;;;;;;-3.50;83.17;96280.81;4886413;29;20061;-79
2022/01/15 06:04:06;;;;;;;0.90;0.90;;;;;;;-3.46;83.21;96269.84;4889034;29;20048;-80
2022/01/15 06:06:34;;;;;;;0.90;0.90;;;;;;;-3.49;82.91;96284.28;4889923;29;20056;-81
2022/01/15 06:09:03;;;;;;;0.90;0.90;;;;;;;-3.49;82.97;96300.09;4884993;29;20060;-81
2022/01/15 06:11:31;;;;;;;0.77;0.77;;;;;;;-3.45;83.11;96305.72;4882507;29;20048;-83
2022/01/15 06:13:58;;;;;;;0.82;0.82;;;;;;;-3.44;83.12;96308.16;4890110;29;20072;-80
2022/01/15 06:16:26;;;;;;;0.80;0.80;;;;;;;-3.40;83.02;96311.13;4893272;29;20079;-79
2022/01/15 06:18:53;;;;;;;0.90;0.90;;;;;;;-3.45;83.03;96327.59;4885853;29;20049;-80
2022/01/15 06:21:20;;;;;;;0.90;0.90;;;;;;;-3.52;83.48;96322.44;4881206;29;20057;-79
2022/01/15 06:23:48;;;;;;;0.90;0.90;;;;;;;-3.49;84.24;96337.81;4886439;29;20072;-80
2022/01/15 06:26:15;;;;;;;1.00;1.00;;;;;;;-3.46;84.77;96343.66;4874734;29;20535;-79
2022/01/15 06:28:42;;;;;;;0.90;0.90;;;;;;;-3.41;84.95;96344.63;4887321;29;20065;-80
2022/01/15 06:31:09;;;;;;;0.90;0.90;;;;;;;-3.39;85.21;96347.84;4884312;29;20057;-82
2022/01/15 06:33:36;;;;;;;0.70;0.70;;;;;;;-3.39;85.59;96349.66;4883522;29;20513;-79
2022/01/15 06:36:04;;;;;;;0.90;0.90;;;;;;;-3.38;85.73;96353.91;4886280;29;20083;-80
2022/01/15 06:38:31;;;;;;;0.80;0.80;;;;;;;-3.34;85.87;96365.63;4885999;29;20049;-82
2022/01/15 06:40:58;;;;;;;0.95;0.95;;;;;;;-3.37;85.75;96368.69;4883962;29;20060;-82
2022/01/15 06:43:25;;;;;;;0.90;0.90;;;;;;;-3.38;85.97;96367.91;4883164;29;20139;-79
2022/01/15 06:45:58;;;;;;;0.80;0.80;;;;;;;-3.32;86.00;96363.56;4886861;29;20060;-79
2022/01/15 06:48:26;;;;;;;1.00;1.00;;;;;;;-3.29;85.85;96368.44;4866404;29;20053;-81
2022/01/15 06:50:56;;;;;;;0.90;0.90;;;;;;;-3.24;85.62;96380.94;4886541;29;20083;-81
2022/01/15 06:53:23;;;;;;;0.80;0.80;;;;;;;-3.25;85.01;96388.03;4889670;29;20049;-80
2022/01/15 06:55:52;;;;;;;0.82;0.82;;;;;;;-3.30;84.65;96383.41;4880439;29;20072;-79
2022/01/15 06:58:24;;;;;;;0.70;0.70;;;;;;;-3.31;84.52;96394.22;4882105;29;20091;-82
2022/01/15 07:00:52;;;;;;;0.85;0.85;;;;;;;-3.31;84.44;96397.66;4886647;29;20313;-83
2022/01/15 07:03:19;;;;;;;1.00;1.00;;;;;;;-3.30;84.37;96395.81;4887111;29;20617;-83
2022/01/15 07:05:46;;;;;;;1.00;1.00;;;;;;;-3.26;84.14;96402.28;4878380;29;20084;-86
2022/01/15 07:08:13;;;;;;;0.80;0.80;;;;;;;-3.17;84.32;96406.22;4881065;29;20045;-82
2022/01/15 07:10:43;;;;;;;0.88;0.88;;;;;;;-3.18;84.11;96394.06;4880193;29;20143;-82
2022/01/15 07:13:11;;;;;;;0.80;0.80;;;;;;;-3.14;83.56;96418.16;4888973;29;20045;-83
2022/01/15 07:15:38;;;;;;;0.90;0.90;;;;;;;-3.15;82.88;96419.19;4881818;29;20056;-83
2022/01/15 07:18:06;;;;;;;0.85;0.85;;;;;;;-3.15;82.85;96425.25;4879311;29;20057;-83
2022/01/15 07:20:33;;;;;;;0.80;0.80;;;;;;;-3.10;83.01;96428.03;4881572;29;20063;-83
2022/01/15 07:23:00;;;;;;;1.10;1.10;;;;;;;-3.05;82.61;96424.75;4871972;29;20660;-82
2022/01/15 07:25:28;;;;;;;1.00;1.00;;;;;;;-2.90;82.31;96411.19;4878750;29;20056;-81
2022/01/15 07:27:55;;;;;;;1.00;1.00;;;;;;;-2.88;81.76;96432.88;4885384;29;20063;-83
2022/01/15 07:30:24;;;;;;;0.90;0.90;;;;;;;-2.81;81.92;96433.63;4886344;29;20044;-82
2022/01/15 07:32:52;;;;;;;0.90;0.90;;;;;;;-2.78;81.49;96437.63;4886259;29;20831;-82
2022/01/15 07:35:21;;;;;;;1.00;1.00;;;;;;;-2.84;80.91;96428.75;4883075;29;20053;-83
2022/01/15 07:37:48;;;;;;;0.93;0.93;;;;;;;-2.85;80.75;96443.78;4888604;29;20083;-84
2022/01/15 07:40:16;;;;;;;0.82;0.82;;;;;;;-2.89;81.01;96439.16;4887507;29;20057;-83
2022/01/15 07:42:44;;;;;;;1.00;1.00;;;;;;;-2.89;81.10;96447.09;4886362;29;20056;-82
2022/01/15 07:45:14;;;;;;;1.00;1.00;;;;;;;-2.90;80.30;96451.56;4882616;29;20063;-84
2022/01/15 07:47:41;;;;;;;1.00;1.00;;;;;;;-2.88;80.38;96452.16;4888324;29;20061;-83
2022/01/15 07:50:13;;;;;;;0.90;0.90;;;;;;;-2.81;79.81;96449.44;4881660;29;20508;-84
2022/01/15 07:52:40;;;;;;;0.88;0.88;;;;;;;-2.78;79.82;96472.75;4885199;29;20057;-84
2022/01/15 07:55:08;;;;;;;0.90;0.90;;;;;;;-2.93;80.01;96459.94;4884213;29;20144;-81
2022/01/15 07:57:55;;;;;;;1.00;1.00;;;;;;;-2.92;80.86;96471.28;4888349;29;20081;-83
2022/01/15 08:00:23;;;;;;;0.85;0.85;;;;;;;-2.92;81.19;96468.66;4878214;29;20104;-83
2022/01/15 08:02:50;;;;;;;0.98;0.98;;;;;;;-2.93;81.70;96483.69;4883977;29;20049;-84
2022/01/15 08:05:18;;;;;;;0.90;0.90;;;;;;;-2.96;81.87;96476.22;4876736;29;20076;-83
2022/01/15 08:07:45;;;;;;;0.90;0.90;;;;;;;-2.97;82.36;96479.88;4879200;29;20053;-83
2022/01/15 08:10:13;;;;;;;0.90;0.90;;;;;;;-2.93;82.50;96488.16;4884458;29;20052;-82
2022/01/15 08:12:44;;;;;;;0.90;0.90;;;;;;;-2.88;82.25;96504.94;4881572;29;20064;-82
2022/01/15 08:15:18;;;;;;;0.80;0.80;;;;;;;-2.80;82.04;96503.84;4885885;29;20516;-82
2022/01/15 08:17:46;;;;;;;0.90;0.90;;;;;;;-2.70;81.80;96504.13;4882276;29;20063;-84
2022/01/15 08:20:17;;;;;;;1.00;1.00;;;;;;;-2.60;81.66;96513.38;4884652;29;20048;-84
2022/01/15 08:22:45;;;;;;;1.00;1.00;;;;;;;-2.62;81.33;96514.38;4883613;29;20067;-82
2022/01/15 08:25:16;;;;;;;0.90;0.90;;;;;;;-2.72;80.99;96511.47;4884670;29;20056;-81
2022/01/15 08:27:43;;;;;;;1.00;1.00;;;;;;;-2.77;81.13;96526.38;4876598;29;20077;-79
2022/01/15 08:30:11;;;;;;;1.00;1.00;;;;;;;-2.73;80.93;96523.06;4883474;29;20052;-80
2022/01/15 08:32:39;;;;;;;0.90;0.90;;;;;;;-2.75;80.58;96532.22;4887934;29;20061;-80
2022/01/15 08:35:06;;;;;;;0.80;0.80;;;;;;;-2.78;80.12;96520.28;4886654;29;20044;-81
2022/01/15 08:37:34;;;;;;;1.00;1.00;;;;;;;-2.73;79.59;96538.91;4880942;29;20061;-81
2022/01/15 08:40:05;;;;;;;1.00;1.00;;;;;;;-2.74;78.15;96539.13;4887550;29;20113;-82
2022/01/15 08:42:32;;;;;;;1.05;1.05;;;;;;;-2.65;77.59;96530.69;4886666;29;20565;-81
2022/01/15 08:44:59;;;;;;;0.90;0.90;;;;;;;-2.50;77.62;96526.88;4881504;29;20396;-79
2022/01/15 08:47:28;;;;;;;1.00;1.00;;;;;;;-2.50;76.69;96550.63;4889182;29;20052;-80
2022/01/15 08:49:58;;;;;;;0.90;0.90;;;;;;;-2.53;75.94;96538.69;4887638;29;20080;-79
2022/01/15 08:52:26;;;;;;;0.85;0.85;;;;;;;-2.56;75.31;96554.16;4887424;29;20101;-78
2022/01/15 08:54:54;;;;;;;1.00;1.00;;;;;;;-2.48;74.80;96552.03;4885218;29;20068;-79
2022/01/15 08:57:21;;;;;;;1.00;1.00;;;;;;;-2.46;74.96;96570.28;4884812;29;20053;-79
2022/01/15 08:59:48;;;;;;;0.90;0.90;;;;;;;-2.43;75.26;96572.47;4886524;29;20053;-80
2022/01/15 09:02:15;;;;;;;0.93;0.93;;;;;;;-2.42;75.14;96569.63;4885995;29;20101;-79
2022/01/15 09:04:43;;;;;;;1.00;1.00;;;;;;;-2.48;74.48;96575.81;4885136;29;20151;-80
2022/01/15 09:07:10;;;;;;;1.00;1.00;;;;;;;-2.54;74.93;96586.44;4885134;29;20045;-79
2022/01/15 09:09:37;;;;;;;0.77;0.77;;;;;;;-2.58;74.76;96587.88;4881938;29;20060;-79
2022/01/15 09:12:04;;;;;;;0.90;0.90;;;;;;;-2.56;75.07;96581.34;4885529;29;20125;-79
2022/01/15 09:14:32;;;;;;;1.00;1.00;;;;;;;-2.45;74.73;96585.91;4884282;29;20057;-79
2022/01/15 09:16:59;;;;;;;0.90;0.90;;;;;;;-2.34;74.35;96597.56;4881511;29;20077;-79
2022/01/15 09:19:26;;;;;;;0.80;0.80;;;;;;;-2.38;74.25;96588.50;4884770;29;20060;-80
2022/01/15 09:21:53;;;;;;;1.00;1.00;;;;;;;-2.32;74.58;96587.59;4880411;29;20061;-80
2022/01/15 09:24:20;;;;;;;0.80;0.80;;;;;;;-2.24;73.83;96582.00;4884354;29;20116;-79
2022/01/15 09:32:12;;;;;;;0.88;0.88;;;;;;;-2.07;73.12;96613.13;4873620;29;20520;-80
2022/01/15 09:34:40;;;;;;;1.20;1.10;;;;;;;-2.12;73.40;96612.97;4874055;29;20425;-80
2022/01/15 09:37:08;;;;;;;0.90;0.90;;;;;;;-2.23;74.07;96627.72;4873957;29;20057;-80
2022/01/15 09:39:36;;;;;;;1.00;1.00;;;;;;;-2.33;75.02;96628.25;4874387;29;20531;-80
2022/01/15 09:42:03;;;;;;;0.82;0.82;;;;;;;-2.41;75.26;96573.88;4873788;29;20090;-81
2022/01/15 09:44:32;;;;;;;1.00;1.00;;;;;;;-2.45;76.04;96625.53;4873535;29;20049;-79
2022/01/15 09:46:59;;;;;;;1.00;1.00;;;;;;;-2.38;75.80;96632.56;4858242;29;20523;-79
2022/01/15 09:49:27;;;;;;;1.00;1.00;;;;;;;-2.26;75.65;96636.09;4858531;29;20101;-78
2022/01/15 09:51:55;;;;;;;1.08;1.08;;;;;;;-2.08;74.20;96635.28;4865253;29;20053;-81
2022/01/15 09:54:22;;;;;;;1.00;1.00;;;;;;;-1.81;73.59;96644.50;4858608;29;20053;-78
2022/01/15 09:56:49;;;;;;;0.98;0.98;;;;;;;-1.48;72.52;96653.03;4874099;29;20112;-78
2022/01/15 09:59:17;;;;;;;0.85;0.85;;;;;;;-1.73;72.72;96647.88;4535029;29;10000005;-78
2022/01/15 10:01:46;;;;;;;1.10;1.10;;;;;;;-1.80;73.40;96664.63;4861934;29;20616;-78
2022/01/15 10:04:13;;;;;;;0.90;0.90;;;;;;;-2.00;72.53;96656.13;4869136;29;20060;-79
2022/01/15 10:07:06;;;;;;;0.80;0.80;;;;;;;-2.06;72.34;96665.75;4854622;29;20045;-79
2022/01/15 10:09:34;;;;;;;1.00;1.00;;;;;;;-2.23;71.79;96660.25;4872827;29;20057;-81
2022/01/15 10:12:02;;;;;;;0.90;0.90;;;;;;;-2.22;72.37;96683.00;4883260;29;20053;-80
2022/01/15 10:14:34;;;;;;;0.88;0.88;;;;;;;-2.33;72.42;96672.34;4884670;29;20757;-79
2022/01/15 10:17:25;;;;;;;0.88;0.88;;;;;;;-2.32;72.73;96687.19;4883541;29;20048;-79
2022/01/15 10:19:52;;;;;;;0.90;0.90;;;;;;;-2.23;73.27;96684.03;4881086;29;20044;-79
2022/01/15 10:22:22;;;;;;;0.95;0.95;;;;;;;-2.21;73.35;96679.31;4884414;29;20519;-80
2022/01/15 10:25:14;;;;;;;1.00;1.00;;;;;;;-2.17;73.00;96685.00;4886693;29;20049;-79
2022/01/15 10:27:42;;;;;;;0.90;0.90;;;;;;;-2.28;73.44;96705.03;4885287;29;20476;-80
2022/01/15 10:30:16;;;;;;;0.90;0.90;;;;;;;-2.42;73.60;96714.09;4883699;29;20143;-78
2022/01/15 10:33:07;;;;;;;0.90;0.90;;;;;;;-2.52;74.27;96704.03;4884628;29;20151;-79
2022/01/15 10:35:41;;;;;;;0.90;0.90;;;;;;;-2.50;74.30;96707.28;4887086;29;20049;-81
2022/01/15 10:38:17;;;;;;;0.80;0.80;;;;;;;-2.47;73.80;96708.66;4883573;29;20072;-80
2022/01/15 10:40:50;;;;;;;1.10;1.10;;;;;;;-2.41;73.36;96716.50;4879716;29;20077;-80
2022/01/15 10:43:30;;;;;;;1.00;1.00;;;;;;;-2.31;72.95;96717.84;4883779;29;20346;-80
2022/01/15 10:46:01;;;;;;;1.00;1.00;;;;;;;-2.16;72.78;96728.06;4890479;29;20104;-80
2022/01/15 10:48:33;;;;;;;1.00;1.00;;;;;;;-2.14;71.93;96744.53;4890341;29;20076;-79
2022/01/15 10:51:05;;;;;;;0.90;0.90;;;;;;;-2.27;71.39;96732.25;4887044;29;20077;-79
2022/01/15 10:53:36;;;;;;;1.00;1.00;;;;;;;-2.35;71.57;96736.00;4882223;29;20121;-81
2022/01/15 10:56:07;;;;;;;0.90;0.90;;;;;;;-2.34;72.04;96737.59;4887297;29;20140;-80
2022/01/15 10:58:36;;;;;;;0.90;0.90;;;;;;;-2.37;72.39;96748.59;4878088;29;20076;-80
2022/01/15 11:01:04;;;;;;;0.95;0.95;;;;;;;-2.41;72.50;96736.84;4884981;29;20048;-80
2022/01/15 11:03:40;;;;;;;0.93;0.93;;;;;;;-2.36;72.12;96731.72;4881877;29;20053;-79
2022/01/15 11:06:08;;;;;;;0.90;0.90;;;;;;;-2.43;71.80;96754.75;4891037;29;20512;-83
2022/01/15 11:08:44;;;;;;;0.90;0.90;;;;;;;-2.49;72.08;96761.69;4894731;29;20045;-80
2022/01/15 11:11:14;;;;;;;0.80;0.80;;;;;;;-2.55;72.68;96762.56;4886927;29;20072;-81
2022/01/15 11:13:44;;;;;;;1.00;1.00;;;;;;;-2.62;73.41;96770.53;4885579;29;20096;-81
2022/01/15 11:16:14;;;;;;;0.90;0.90;;;;;;;-2.69;73.39;96777.69;4886330;29;20071;-79
2022/01/15 11:18:44;;;;;;;0.80;0.80;;;;;;;-2.81;74.42;96794.44;4882899;29;20053;-81
2022/01/15 11:21:18;;;;;;;0.90;0.90;;;;;;;-2.86;75.49;96781.88;4889839;29;20481;-80
2022/01/15 11:23:46;;;;;;;0.90;0.90;;;;;;;-2.89;76.54;96812.16;4890244;29;20147;-79
2022/01/15 11:26:20;;;;;;;0.82;0.82;;;;;;;-2.93;77.16;96818.09;4875804;29;20088;-78
2022/01/15 11:28:48;;;;;;;1.10;1.10;;;;;;;-3.01;78.23;96810.41;4881789;29;20059;-81
2022/01/15 11:31:21;;;;;;;1.00;1.00;;;;;;;-3.01;78.63;96820.97;4885529;29;20053;-81
2022/01/15 11:33:55;;;;;;;1.00;1.00;;;;;;;-3.02;79.28;96830.72;4884855;29;20706;-79
2022/01/15 11:36:32;;;;;;;0.88;0.88;;;;;;;-2.94;79.65;96832.28;4884023;29;20053;-79
2022/01/15 11:39:03;;;;;;;0.90;0.90;;;;;;;-2.92;79.64;96843.47;4889736;29;20144;-79
2022/01/15 11:41:30;;;;;;;0.90;0.90;;;;;;;-2.97;80.12;96856.47;4883502;29;20084;-81
2022/01/15 11:44:00;;;;;;;0.95;0.95;;;;;;;-3.08;79.73;96848.19;4882770;29;20148;-80
2022/01/15 11:46:40;;;;;;;0.90;0.90;;;;;;;-3.09;80.66;96857.16;4882332;29;20052;-80
2022/01/15 11:49:23;;;;;;;0.75;0.75;;;;;;;-3.04;80.93;96853.84;4885743;29;20132;-79
2022/01/15 11:51:55;;;;;;;0.70;0.70;;;;;;;-3.11;80.79;96871.56;4885339;29;20080;-79
2022/01/15 11:54:22;;;;;;;0.90;0.90;;;;;;;-3.11;80.85;96876.84;4882471;29;20181;-79
2022/01/15 11:56:49;;;;;;;0.90;0.90;;;;;;;-3.15;81.26;96879.09;4887876;29;20723;-79
2022/01/15 11:59:25;;;;;;;0.93;0.93;;;;;;;-3.12;81.41;96897.13;4884452;29;20067;-80
2022/01/15 12:01:57;;;;;;;0.90;0.90;;;;;;;-3.08;81.54;96898.34;4887823;29;20435;-80
2022/01/15 12:04:35;;;;;;;0.95;0.95;;;;;;;-3.09;81.81;96917.00;4888078;29;20583;-80
2022/01/15 12:07:05;;;;;;;0.80;0.80;;;;;;;-3.13;81.93;96913.19;4887445;29;20060;-81